Time,TemperatureF,DewpointF,PressureIn,WindDirection,WindDirectionDegrees,WindSpeedMPH,WindSpeedGustMPH,Humidity,HourlyPrecipIn,Conditions,Clouds,dailyrainin,SoftwareType,DateUTC
2013-07-29 00:04:00,54.3,52.0,30.20,SW,235,0.0,0.0,92,0.00,,,0.00,VWS V12.07,2013-07-29 05:04:00,
2013-07-29 00:05:00,54.3,52.0,30.20,SW,235,0.0,0.0,92,0.00,,,0.00,VWS V12.07,2013-07-29 05:05:00,
2013-07-29 00:10:00,54.1,51.8,30.20,SW,235,1.0,1.0,92,0.00,,,0.00,VWS V12.07,2013-07-29 05:10:00,
2013-07-29 00:17:00,54.0,51.7,30.20,SW,235,0.0,1.0,92,0.00,,,0.00,VWS V12.07,2013-07-29 05:17:00,
2013-07-29 00:20:00,54.0,51.7,30.20,SW,235,0.0,0.0,92,0.00,,,0.00,VWS V12.07,2013-07-29 05:20:00,
2013-07-29 00:25:00,53.9,51.6,30.20,SW,235,0.0,0.0,92,0.00,,,0.00,VWS V12.07,2013-07-29 05:25:00,
2013-07-29 00:34:00,53.6,51.3,30.21,SW,235,0.0,0.0,92,0.00,,,0.00,VWS V12.07,2013-07-29 05:34:00,
2013-07-29 00:35:00,53.6,51.6,30.21,SW,235,0.0,0.0,93,0.00,,,0.00,VWS V12.07,2013-07-29 05:35:00,
2013-07-29 00:40:00,53.5,51.5,30.20,SW,235,0.0,0.0,93,0.00,,,0.00,VWS V12.07,2013-07-29 05:40:00,
2013-07-29 00:47:00,53.4,51.4,30.20,SW,235,0.0,0.0,93,0.00,,,0.00,VWS V12.07,2013-07-29 05:47:00,
2013-07-29 00:55:00,53.2,51.2,30.21,SW,234,0.0,0.0,93,0.00,,,0.00,VWS V12.07,2013-07-29 05:55:00,
2013-07-29 01:04:00,53.1,51.4,30.21,SW,233,0.0,0.0,94,0.00,,,0.00,VWS V12.07,2013-07-29 06:04:00,
2013-07-29 01:05:00,53.1,51.4,30.21,SW,233,0.0,0.0,94,0.00,,,0.00,VWS V12.07,2013-07-29 06:05:00,
2013-07-29 01:10:00,53.2,51.5,30.20,SW,233,0.0,0.0,94,0.00,,,0.00,VWS V12.07,2013-07-29 06:10:00,
2013-07-29 01:17:00,53.5,51.8,30.20,SW,233,0.0,0.0,94,0.00,,,0.00,VWS V12.07,2013-07-29 06:17:00,
2013-07-29 01:20:00,53.5,51.8,30.20,SW,233,0.0,0.0,94,0.00,,,0.00,VWS V12.07,2013-07-29 06:20:00,
2013-07-29 01:25:00,53.6,51.9,30.20,SW,233,0.0,0.0,94,0.00,,,0.00,VWS V12.07,2013-07-29 06:25:00,
2013-07-29 01:34:00,53.4,51.7,30.20,SW,235,0.0,0.0,94,0.00,,,0.00,VWS V12.07,2013-07-29 06:34:00,
2013-07-29 01:40:00,53.2,51.5,30.21,SW,235,0.0,0.0,94,0.00,,,0.00,VWS V12.07,2013-07-29 06:40:00,
2013-07-29 01:48:00,53.1,51.4,30.21,SW,235,0.0,0.0,94,0.00,,,0.00,VWS V12.07,2013-07-29 06:48:00,
2013-07-29 01:55:00,53.0,51.3,30.21,SW,235,0.0,0.0,94,0.00,,,0.00,VWS V12.07,2013-07-29 06:55:00,
2013-07-29 02:04:00,52.9,51.2,30.21,SW,235,0.0,0.0,94,0.00,,,0.00,VWS V12.07,2013-07-29 07:04:00,
2013-07-29 02:05:00,52.9,51.2,30.21,SW,235,0.0,0.0,94,0.00,,,0.00,VWS V12.07,2013-07-29 07:05:00,
2013-07-29 02:10:00,52.6,50.6,30.21,SW,235,0.0,0.0,93,0.00,,,0.00,VWS V12.07,2013-07-29 07:10:00,
2013-07-29 02:18:00,52.4,50.7,30.22,SW,235,0.0,0.0,94,0.00,,,0.00,VWS V12.07,2013-07-29 07:18:00,
2013-07-29 02:20:00,52.1,50.1,30.22,SW,235,1.0,1.0,93,0.00,,,0.00,VWS V12.07,2013-07-29 07:20:00,
2013-07-29 02:25:00,51.6,49.9,30.21,SW,235,0.0,1.0,94,0.00,,,0.00,VWS V12.07,2013-07-29 07:25:00,
2013-07-29 02:34:00,51.4,50.0,30.22,SW,235,0.0,0.0,95,0.00,,,0.00,VWS V12.07,2013-07-29 07:34:00,
2013-07-29 02:35:00,51.5,50.1,30.22,SW,235,0.0,1.0,95,0.00,,,0.00,VWS V12.07,2013-07-29 07:35:00,
2013-07-29 02:40:00,51.8,50.4,30.22,SW,235,0.0,1.0,95,0.00,,,0.00,VWS V12.07,2013-07-29 07:40:00,
2013-07-29 02:47:00,52.0,50.6,30.22,West,263,0.0,1.0,95,0.00,,,0.00,VWS V12.07,2013-07-29 07:47:00,
2013-07-29 02:50:00,52.0,50.6,30.22,West,261,0.0,1.0,95,0.00,,,0.00,VWS V12.07,2013-07-29 07:50:00,
2013-07-29 02:55:00,52.0,50.6,30.22,West,263,0.0,1.0,95,0.00,,,0.00,VWS V12.07,2013-07-29 07:55:00,
2013-07-29 03:04:00,51.8,50.4,30.22,West,263,0.0,0.0,95,0.00,,,0.00,VWS V12.07,2013-07-29 08:04:00,
2013-07-29 03:05:00,51.7,50.3,30.22,West,261,0.0,0.0,95,0.00,,,0.00,VWS V12.07,2013-07-29 08:05:00,
2013-07-29 03:10:00,51.3,49.6,30.22,SW,217,1.0,1.0,94,0.00,,,0.00,VWS V12.07,2013-07-29 08:10:00,
2013-07-29 03:17:00,50.7,49.3,30.22,SW,226,0.0,1.0,95,0.00,,,0.00,VWS V12.07,2013-07-29 08:17:00,
2013-07-29 03:25:00,50.4,49.0,30.22,SW,214,0.0,2.0,95,0.00,,,0.00,VWS V12.07,2013-07-29 08:25:00,
2013-07-29 03:34:00,50.7,49.6,30.22,SW,214,0.0,0.0,96,0.00,,,0.00,VWS V12.07,2013-07-29 08:34:00,
2013-07-29 03:35:00,50.8,49.7,30.22,SW,214,0.0,0.0,96,0.00,,,0.00,VWS V12.07,2013-07-29 08:35:00,
2013-07-29 03:40:00,50.9,49.8,30.22,SW,214,0.0,0.0,96,0.00,,,0.00,VWS V12.07,2013-07-29 08:40:00,
2013-07-29 03:47:00,50.3,48.9,30.22,SSW,208,0.0,2.0,95,0.00,,,0.00,VWS V12.07,2013-07-29 08:47:00,
2013-07-29 03:50:00,50.2,49.1,30.22,SSW,209,0.0,0.0,96,0.00,,,0.00,VWS V12.07,2013-07-29 08:50:00,
2013-07-29 03:55:00,50.1,49.0,30.22,SSW,209,0.0,1.0,96,0.00,,,0.00,VWS V12.07,2013-07-29 08:55:00,
2013-07-29 04:04:00,49.7,48.6,30.22,SSW,208,0.0,0.0,96,0.00,,,0.00,VWS V12.07,2013-07-29 09:04:00,
2013-07-29 04:05:00,49.7,48.6,30.22,SSW,208,0.0,0.0,96,0.00,,,0.00,VWS V12.07,2013-07-29 09:05:00,
2013-07-29 04:10:00,49.6,48.5,30.23,SSW,208,0.0,0.0,96,0.00,,,0.00,VWS V12.07,2013-07-29 09:10:00,
2013-07-29 04:17:00,50.3,49.5,30.23,SSW,208,0.0,0.0,97,0.00,,,0.00,VWS V12.07,2013-07-29 09:17:00,
2013-07-29 04:20:00,50.3,49.5,30.23,SSW,208,0.0,0.0,97,0.00,,,0.00,VWS V12.07,2013-07-29 09:20:00,
2013-07-29 04:25:00,50.4,49.6,30.23,SSW,209,0.0,0.0,97,0.00,,,0.00,VWS V12.07,2013-07-29 09:25:00,
2013-07-29 04:34:00,50.4,49.3,30.23,SSW,208,0.0,0.0,96,0.00,,,0.00,VWS V12.07,2013-07-29 09:34:00,
2013-07-29 04:35:00,50.3,49.2,30.23,SSW,209,0.0,0.0,96,0.00,,,0.00,VWS V12.07,2013-07-29 09:35:00,
2013-07-29 04:40:00,50.2,49.1,30.23,SSW,208,0.0,0.0,96,0.00,,,0.00,VWS V12.07,2013-07-29 09:40:00,
2013-07-29 04:47:00,50.2,49.1,30.23,SSW,208,0.0,0.0,96,0.00,,,0.00,VWS V12.07,2013-07-29 09:47:00,
2013-07-29 04:50:00,50.1,49.0,30.23,SSW,208,0.0,0.0,96,0.00,,,0.00,VWS V12.07,2013-07-29 09:50:00,
2013-07-29 04:55:00,50.1,49.3,30.23,SSW,209,0.0,0.0,97,0.00,,,0.00,VWS V12.07,2013-07-29 09:55:00,
2013-07-29 05:04:00,49.9,49.1,30.24,SSW,209,0.0,0.0,97,0.00,,,0.00,VWS V12.07,2013-07-29 10:04:00,
2013-07-29 05:10:00,49.9,49.1,30.23,SSW,208,0.0,0.0,97,0.00,,,0.00,VWS V12.07,2013-07-29 10:10:00,
2013-07-29 05:17:00,50.3,49.5,30.24,SSW,208,0.0,0.0,97,0.00,,,0.00,VWS V12.07,2013-07-29 10:17:00,
2013-07-29 05:20:00,50.3,49.5,30.24,SSW,209,0.0,0.0,97,0.00,,,0.00,VWS V12.07,2013-07-29 10:20:00,
2013-07-29 05:25:00,50.1,49.3,30.24,SSW,208,0.0,0.0,97,0.00,,,0.00,VWS V12.07,2013-07-29 10:25:00,
2013-07-29 05:34:00,50.3,49.5,30.25,SSW,208,0.0,0.0,97,0.00,,,0.00,VWS V12.07,2013-07-29 10:34:00,
2013-07-29 05:40:00,50.6,49.8,30.25,SSW,194,0.0,0.0,97,0.00,,,0.00,VWS V12.07,2013-07-29 10:40:00,
2013-07-29 05:47:00,50.6,49.8,30.25,SSW,195,0.0,0.0,97,0.00,,,0.00,VWS V12.07,2013-07-29 10:47:00,
2013-07-29 05:50:00,50.4,49.6,30.25,SSW,194,0.0,0.0,97,0.00,,,0.00,VWS V12.07,2013-07-29 10:50:00,
2013-07-29 05:55:00,49.5,48.1,30.25,East,81,1.0,2.0,95,0.00,,,0.00,VWS V12.07,2013-07-29 10:55:00,
2013-07-29 06:04:00,49.1,48.0,30.25,ENE,76,0.0,1.0,96,0.00,,,0.00,VWS V12.07,2013-07-29 11:04:00,
2013-07-29 06:17:00,50.0,48.9,30.26,SSW,210,0.0,1.0,96,0.00,,,0.00,VWS V12.07,2013-07-29 11:17:00,
2013-07-29 06:20:00,50.1,49.0,30.26,WSW,238,1.0,1.0,96,0.00,,,0.00,VWS V12.07,2013-07-29 11:20:00,
2013-07-29 06:25:00,50.5,49.1,30.26,SW,235,0.0,1.0,95,0.00,,,0.00,VWS V12.07,2013-07-29 11:25:00,
2013-07-29 06:34:00,51.2,50.1,30.26,SW,236,0.0,0.0,96,0.00,,,0.00,VWS V12.07,2013-07-29 11:34:00,
2013-07-29 06:35:00,51.4,50.3,30.26,SW,236,0.0,0.0,96,0.00,,,0.00,VWS V12.07,2013-07-29 11:35:00,
2013-07-29 06:40:00,52.5,51.4,30.26,WSW,238,0.0,0.0,96,0.00,,,0.00,VWS V12.07,2013-07-29 11:40:00,
2013-07-29 06:47:00,53.8,52.7,30.27,WSW,239,0.0,0.0,96,0.00,,,0.00,VWS V12.07,2013-07-29 11:47:00,
2013-07-29 06:55:00,54.9,53.5,30.28,WSW,239,0.0,1.0,95,0.00,,,0.00,VWS V12.07,2013-07-29 11:55:00,
2013-07-29 07:04:00,56.2,53.6,30.27,NW,304,0.0,1.0,91,0.00,,,0.00,VWS V12.07,2013-07-29 12:04:00,
2013-07-29 07:20:00,57.1,54.2,30.27,WNW,290,0.0,0.0,90,0.00,,,0.00,VWS V12.07,2013-07-29 12:20:00,
2013-07-29 07:25:00,58.0,54.2,30.28,NNW,342,0.0,1.0,87,0.00,,,0.00,VWS V12.07,2013-07-29 12:25:00,
2013-07-29 07:40:00,59.0,54.5,30.28,NW,319,0.0,2.0,85,0.00,,,0.00,VWS V12.07,2013-07-29 12:40:00,
2013-07-29 07:47:00,59.9,55.4,30.28,NW,307,0.0,2.0,85,0.00,,,0.00,VWS V12.07,2013-07-29 12:47:00,
2013-07-29 07:55:00,61.1,55.6,30.29,NW,307,0.0,2.0,82,0.00,,,0.00,VWS V12.07,2013-07-29 12:55:00,
2013-07-29 08:04:00,60.6,54.8,30.29,WNW,284,0.0,2.0,81,0.00,,,0.00,VWS V12.07,2013-07-29 13:04:00,
2013-07-29 08:05:00,60.6,54.8,30.29,West,274,0.0,2.0,81,0.00,,,0.00,VWS V12.07,2013-07-29 13:05:00,
2013-07-29 08:10:00,60.5,55.3,30.29,NW,311,0.0,2.0,83,0.00,,,0.00,VWS V12.07,2013-07-29 13:10:00,
2013-07-29 08:17:00,60.4,54.5,30.29,West,281,1.0,3.0,81,0.00,,,0.00,VWS V12.07,2013-07-29 13:17:00,
2013-07-29 08:20:00,60.5,54.7,30.30,WNW,293,0.0,1.0,81,0.00,,,0.00,VWS V12.07,2013-07-29 13:20:00,
2013-07-29 08:25:00,60.5,54.7,30.30,NNE,15,1.0,4.0,81,0.00,,,0.00,VWS V12.07,2013-07-29 13:25:00,
2013-07-29 08:35:00,61.4,55.2,30.30,WNW,291,1.0,3.0,80,0.00,,,0.00,VWS V12.07,2013-07-29 13:35:00,
2013-07-29 08:40:00,61.7,55.1,30.30,NNW,336,3.0,3.0,79,0.00,,,0.00,VWS V12.07,2013-07-29 13:40:00,
2013-07-29 08:50:00,62.8,55.8,30.30,NNW,337,1.0,3.0,78,0.00,,,0.00,VWS V12.07,2013-07-29 13:50:00,
2013-07-29 08:55:00,63.3,55.2,30.30,WNW,293,1.0,4.0,75,0.00,,,0.00,VWS V12.07,2013-07-29 13:55:00,
2013-07-29 09:05:00,63.3,55.2,30.30,NW,315,2.0,5.0,75,0.00,,,0.00,VWS V12.07,2013-07-29 14:05:00,
2013-07-29 09:10:00,63.4,54.6,30.30,NNE,15,3.0,4.0,73,0.00,,,0.00,VWS V12.07,2013-07-29 14:10:00,
2013-07-29 09:17:00,64.7,55.5,30.30,NW,322,1.0,4.0,72,0.00,,,0.00,VWS V12.07,2013-07-29 14:17:00,
2013-07-29 09:25:00,64.1,55.3,30.30,NNW,330,4.0,6.0,73,0.00,,,0.00,VWS V12.07,2013-07-29 14:25:00,
2013-07-29 09:34:00,64.3,54.3,30.30,NNE,14,2.0,6.0,70,0.00,,,0.00,VWS V12.07,2013-07-29 14:34:00,
2013-07-29 09:40:00,64.8,54.8,30.30,NNW,333,1.0,6.0,70,0.00,,,0.00,VWS V12.07,2013-07-29 14:40:00,
2013-07-29 09:47:00,65.4,55.0,30.30,NNW,329,2.0,6.0,69,0.00,,,0.00,VWS V12.07,2013-07-29 14:47:00,
2013-07-29 09:50:00,65.6,55.6,30.30,WNW,287,0.0,3.0,70,0.00,,,0.00,VWS V12.07,2013-07-29 14:50:00,
2013-07-29 09:55:00,65.8,54.1,30.30,WNW,298,1.0,5.0,66,0.00,,,0.00,VWS V12.07,2013-07-29 14:55:00,
2013-07-29 10:04:00,66.2,55.3,30.30,North,351,2.0,5.0,68,0.00,,,0.00,VWS V12.07,2013-07-29 15:04:00,
2013-07-29 10:10:00,66.1,54.0,30.30,NW,324,2.0,4.0,65,0.00,,,0.00,VWS V12.07,2013-07-29 15:10:00,
2013-07-29 10:17:00,66.5,55.6,30.30,WNW,284,1.0,5.0,68,0.00,,,0.00,VWS V12.07,2013-07-29 15:17:00,
2013-07-29 10:20:00,66.6,55.3,30.30,NW,315,1.0,3.0,67,0.00,,,0.00,VWS V12.07,2013-07-29 15:20:00,
2013-07-29 10:40:00,66.9,56.0,30.31,NW,316,1.0,4.0,68,0.00,,,0.00,VWS V12.07,2013-07-29 15:40:00,
2013-07-29 10:47:00,67.4,55.7,30.30,NNW,342,1.0,5.0,66,0.00,,,0.00,VWS V12.07,2013-07-29 15:47:00,
2013-07-29 10:50:00,67.9,56.1,30.30,North,10,0.0,3.0,66,0.00,,,0.00,VWS V12.07,2013-07-29 15:50:00,
2013-07-29 10:55:00,68.0,57.9,30.30,North,355,2.0,6.0,70,0.00,,,0.00,VWS V12.07,2013-07-29 15:55:00,
2013-07-29 11:05:00,68.8,58.2,30.31,NNE,27,3.0,8.0,69,0.00,,,0.00,VWS V12.07,2013-07-29 16:05:00,
2013-07-29 11:10:00,68.9,58.3,30.31,West,264,1.0,2.0,69,0.00,,,0.00,VWS V12.07,2013-07-29 16:10:00,
2013-07-29 11:17:00,69.1,57.3,30.31,NNW,333,3.0,7.0,66,0.00,,,0.00,VWS V12.07,2013-07-29 16:17:00,
2013-07-29 11:25:00,69.3,57.0,30.30,NW,310,1.0,5.0,65,0.00,,,0.00,VWS V12.07,2013-07-29 16:25:00,
2013-07-29 11:34:00,69.8,57.9,30.30,North,352,2.0,6.0,66,0.00,,,0.00,VWS V12.07,2013-07-29 16:34:00,
2013-07-29 11:35:00,69.7,56.1,30.30,West,264,3.0,6.0,62,0.00,,,0.00,VWS V12.07,2013-07-29 16:35:00,
2013-07-29 11:47:00,71.0,57.8,30.30,NNW,338,1.0,6.0,63,0.00,,,0.00,VWS V12.07,2013-07-29 16:47:00,
2013-07-29 11:50:00,71.1,57.4,30.30,WSW,247,1.0,3.0,62,0.00,,,0.00,VWS V12.07,2013-07-29 16:50:00,
2013-07-29 11:55:00,71.0,57.3,30.30,NNW,332,1.0,5.0,62,0.00,,,0.00,VWS V12.07,2013-07-29 16:55:00,
2013-07-29 12:05:00,70.8,58.9,30.30,SW,218,1.0,5.0,66,0.00,,,0.00,VWS V12.07,2013-07-29 17:05:00,
2013-07-29 12:17:00,70.6,57.4,30.30,WSW,240,1.0,6.0,63,0.00,,,0.00,VWS V12.07,2013-07-29 17:17:00,
2013-07-29 12:20:00,71.2,58.4,30.30,WNW,300,3.0,3.0,64,0.00,,,0.00,VWS V12.07,2013-07-29 17:20:00,
2013-07-29 12:25:00,72.2,59.4,30.30,WSW,249,3.0,4.0,64,0.00,,,0.00,VWS V12.07,2013-07-29 17:25:00,
2013-07-29 12:34:00,73.4,57.7,30.29,NNW,331,2.0,7.0,58,0.00,,,0.00,VWS V12.07,2013-07-29 17:34:00,
2013-07-29 12:35:00,72.9,57.8,30.30,NW,307,1.0,7.0,59,0.00,,,0.00,VWS V12.07,2013-07-29 17:35:00,
2013-07-29 12:40:00,73.6,60.7,30.29,NW,309,3.0,5.0,64,0.00,,,0.00,VWS V12.07,2013-07-29 17:40:00,
2013-07-29 12:47:00,72.6,58.4,30.30,NW,312,2.0,6.0,61,0.00,,,0.00,VWS V12.07,2013-07-29 17:47:00,
2013-07-29 12:50:00,72.5,58.8,30.29,NW,307,1.0,4.0,62,0.00,,,0.00,VWS V12.07,2013-07-29 17:50:00,
2013-07-29 13:04:00,73.3,58.6,30.29,NW,308,2.0,4.0,60,0.00,,,0.00,VWS V12.07,2013-07-29 18:04:00,
2013-07-29 13:05:00,73.4,59.6,30.29,NE,51,1.0,4.0,62,0.00,,,0.00,VWS V12.07,2013-07-29 18:05:00,
2013-07-29 13:10:00,73.0,58.8,30.29,SW,231,0.0,1.0,61,0.00,,,0.00,VWS V12.07,2013-07-29 18:10:00,
2013-07-29 13:17:00,72.8,57.2,30.28,SE,126,2.0,5.0,58,0.00,,,0.00,VWS V12.07,2013-07-29 18:17:00,
2013-07-29 13:20:00,72.3,57.2,30.28,East,98,1.0,3.0,59,0.00,,,0.00,VWS V12.07,2013-07-29 18:20:00,
2013-07-29 13:25:00,71.8,58.5,30.29,NW,314,1.0,6.0,63,0.00,,,0.00,VWS V12.07,2013-07-29 18:25:00,
2013-07-29 13:34:00,74.2,60.4,30.28,WNW,301,1.0,5.0,62,0.00,,,0.00,VWS V12.07,2013-07-29 18:34:00,
2013-07-29 13:35:00,74.4,59.2,30.28,ENE,68,0.0,5.0,59,0.00,,,0.00,VWS V12.07,2013-07-29 18:35:00,
2013-07-29 13:40:00,74.7,59.0,30.28,NW,319,2.0,7.0,58,0.00,,,0.00,VWS V12.07,2013-07-29 18:40:00,
2013-07-29 13:47:00,73.3,58.6,30.27,North,357,3.0,7.0,60,0.00,,,0.00,VWS V12.07,2013-07-29 18:47:00,
2013-07-29 13:55:00,73.9,60.1,30.27,West,276,0.0,4.0,62,0.00,,,0.00,VWS V12.07,2013-07-29 18:55:00,
2013-07-29 14:04:00,72.8,57.7,30.28,ENE,64,0.0,6.0,59,0.00,,,0.00,VWS V12.07,2013-07-29 19:04:00,
2013-07-29 14:05:00,72.8,58.1,30.28,NW,323,2.0,6.0,60,0.00,,,0.00,VWS V12.07,2013-07-29 19:05:00,
2013-07-29 14:10:00,72.6,59.3,30.27,WSW,239,1.0,2.0,63,0.00,,,0.00,VWS V12.07,2013-07-29 19:10:00,
2013-07-29 14:17:00,73.1,58.4,30.27,North,4,5.0,6.0,60,0.00,,,0.00,VWS V12.07,2013-07-29 19:17:00,
2013-07-29 14:20:00,72.7,58.5,30.27,ENE,72,3.0,5.0,61,0.00,,,0.00,VWS V12.07,2013-07-29 19:20:00,
2013-07-29 14:34:00,72.9,59.6,30.27,NNW,338,1.0,2.0,63,0.00,,,0.00,VWS V12.07,2013-07-29 19:34:00,
2013-07-29 14:35:00,73.1,59.8,30.27,ENE,76,1.0,2.0,63,0.00,,,0.00,VWS V12.07,2013-07-29 19:35:00,
2013-07-29 14:40:00,73.3,60.0,30.27,NNW,329,2.0,3.0,63,0.00,,,0.00,VWS V12.07,2013-07-29 19:40:00,
2013-07-29 14:47:00,74.0,59.2,30.27,ENE,69,1.0,7.0,60,0.00,,,0.00,VWS V12.07,2013-07-29 19:47:00,
2013-07-29 14:50:00,74.0,60.6,30.27,NE,47,4.0,4.0,63,0.00,,,0.00,VWS V12.07,2013-07-29 19:50:00,
2013-07-29 15:04:00,73.5,57.3,30.26,East,89,1.0,6.0,57,0.00,,,0.00,VWS V12.07,2013-07-29 20:04:00,
2013-07-29 15:10:00,74.0,60.2,30.27,East,79,2.0,4.0,62,0.00,,,0.00,VWS V12.07,2013-07-29 20:10:00,
2013-07-29 15:17:00,74.2,59.0,30.27,NNW,337,5.0,8.0,59,0.00,,,0.00,VWS V12.07,2013-07-29 20:17:00,
2013-07-29 15:20:00,74.1,58.9,30.27,NW,314,2.0,5.0,59,0.00,,,0.00,VWS V12.07,2013-07-29 20:20:00,
2013-07-29 15:25:00,74.4,58.7,30.27,WNW,298,2.0,5.0,58,0.00,,,0.00,VWS V12.07,2013-07-29 20:25:00,
2013-07-29 15:40:00,74.6,58.4,30.27,NE,53,0.0,3.0,57,0.00,,,0.00,VWS V12.07,2013-07-29 20:40:00,
2013-07-29 15:47:00,74.4,58.7,30.27,NW,314,1.0,3.0,58,0.00,,,0.00,VWS V12.07,2013-07-29 20:47:00,
2013-07-29 15:50:00,74.2,59.4,30.27,NW,311,1.0,1.0,60,0.00,,,0.00,VWS V12.07,2013-07-29 20:50:00,
2013-07-29 15:55:00,73.7,59.9,30.27,West,281,1.0,2.0,62,0.00,,,0.00,VWS V12.07,2013-07-29 20:55:00,
2013-07-29 16:04:00,74.1,59.3,30.27,WNW,284,0.0,3.0,60,0.00,,,0.00,VWS V12.07,2013-07-29 21:04:00,
2013-07-29 16:05:00,74.4,59.2,30.27,WNW,283,0.0,3.0,59,0.00,,,0.00,VWS V12.07,2013-07-29 21:05:00,
2013-07-29 16:10:00,75.5,59.2,30.27,WNW,290,0.0,2.0,57,0.00,,,0.00,VWS V12.07,2013-07-29 21:10:00,
2013-07-29 16:20:00,76.6,60.2,30.27,West,259,1.0,5.0,57,0.00,,,0.00,VWS V12.07,2013-07-29 21:20:00,
2013-07-29 16:25:00,76.7,60.3,30.27,WSW,257,1.0,5.0,57,0.00,,,0.00,VWS V12.07,2013-07-29 21:25:00,
2013-07-29 16:40:00,76.3,60.5,30.27,WSW,243,2.0,3.0,58,0.00,,,0.00,VWS V12.07,2013-07-29 21:40:00,
2013-07-29 16:47:00,76.3,59.5,30.27,WSW,247,3.0,3.0,56,0.00,,,0.00,VWS V12.07,2013-07-29 21:47:00,
2013-07-29 16:50:00,76.0,58.7,30.26,SW,236,1.0,3.0,55,0.00,,,0.00,VWS V12.07,2013-07-29 21:50:00,
2013-07-29 16:55:00,76.1,60.8,30.26,SSE,160,2.0,3.0,59,0.00,,,0.00,VWS V12.07,2013-07-29 21:55:00,
2013-07-29 17:04:00,76.2,58.9,30.26,South,191,0.0,4.0,55,0.00,,,0.00,VWS V12.07,2013-07-29 22:04:00,
2013-07-29 17:05:00,76.3,59.0,30.26,SSE,156,2.0,4.0,55,0.00,,,0.00,VWS V12.07,2013-07-29 22:05:00,
2013-07-29 17:10:00,76.3,60.5,30.26,SSE,160,2.0,4.0,58,0.00,,,0.00,VWS V12.07,2013-07-29 22:10:00,
2013-07-29 17:17:00,77.4,60.0,30.26,West,276,0.0,4.0,55,0.00,,,0.00,VWS V12.07,2013-07-29 22:17:00,
2013-07-29 17:20:00,77.6,58.6,30.26,West,269,0.0,2.0,52,0.00,,,0.00,VWS V12.07,2013-07-29 22:20:00,
2013-07-29 17:25:00,78.1,60.1,30.26,SE,129,1.0,2.0,54,0.00,,,0.00,VWS V12.07,2013-07-29 22:25:00,
2013-07-29 17:34:00,78.1,59.6,30.26,SW,232,1.0,3.0,53,0.00,,,0.00,VWS V12.07,2013-07-29 22:34:00,
2013-07-29 17:40:00,77.3,58.8,30.26,SSW,197,3.0,6.0,53,0.00,,,0.00,VWS V12.07,2013-07-29 22:40:00,
2013-07-29 17:47:00,75.7,58.9,30.26,SSW,200,1.0,6.0,56,0.00,,,0.00,VWS V12.07,2013-07-29 22:47:00,
2013-07-29 17:50:00,75.5,59.7,30.26,SSW,201,0.0,0.0,58,0.00,,,0.00,VWS V12.07,2013-07-29 22:50:00,
2013-07-29 17:55:00,75.6,59.8,30.26,SSE,158,0.0,2.0,58,0.00,,,0.00,VWS V12.07,2013-07-29 22:55:00,
2013-07-29 18:04:00,76.0,60.2,30.26,SSE,167,0.0,1.0,58,0.00,,,0.00,VWS V12.07,2013-07-29 23:04:00,
2013-07-29 18:10:00,76.2,59.9,30.26,SSE,158,0.0,1.0,57,0.00,,,0.00,VWS V12.07,2013-07-29 23:10:00,
2013-07-29 18:17:00,77.4,60.5,30.26,ESE,105,1.0,1.0,56,0.00,,,0.00,VWS V12.07,2013-07-29 23:17:00,
2013-07-29 18:20:00,77.4,60.0,30.26,SE,145,0.0,1.0,55,0.00,,,0.00,VWS V12.07,2013-07-29 23:20:00,
2013-07-29 18:34:00,77.0,59.6,30.26,SSW,202,0.0,2.0,55,0.00,,,0.00,VWS V12.07,2013-07-29 23:34:00,
2013-07-29 18:40:00,77.7,59.8,30.26,SW,223,1.0,2.0,54,0.00,,,0.00,VWS V12.07,2013-07-29 23:40:00,
2013-07-29 18:47:00,76.1,58.8,30.26,South,170,2.0,3.0,55,0.00,,,0.00,VWS V12.07,2013-07-29 23:47:00,
2013-07-29 18:50:00,76.0,59.7,30.26,SE,132,1.0,2.0,57,0.00,,,0.00,VWS V12.07,2013-07-29 23:50:00,
2013-07-29 18:55:00,75.9,59.6,30.26,ESE,104,2.0,2.0,57,0.00,,,0.00,VWS V12.07,2013-07-29 23:55:00,
2013-07-29 19:04:00,75.2,58.4,30.26,ESE,107,3.0,4.0,56,0.00,,,0.00,VWS V12.07,2013-07-30 00:04:00,
2013-07-29 19:10:00,74.8,58.6,30.26,SSE,163,2.0,3.0,57,0.00,,,0.00,VWS V12.07,2013-07-30 00:10:00,
2013-07-29 19:17:00,74.7,59.4,30.27,ESE,102,0.0,3.0,59,0.00,,,0.00,VWS V12.07,2013-07-30 00:17:00,
2013-07-29 19:25:00,74.3,60.0,30.27,SW,219,0.0,1.0,61,0.00,,,0.00,VWS V12.07,2013-07-30 00:25:00,
2013-07-29 19:35:00,73.1,59.8,30.26,SSW,193,0.0,1.0,63,0.00,,,0.00,VWS V12.07,2013-07-30 00:35:00,
2013-07-29 19:40:00,72.6,59.3,30.26,SSW,197,0.0,0.0,63,0.00,,,0.00,VWS V12.07,2013-07-30 00:40:00,
2013-07-29 19:47:00,72.2,59.4,30.27,SSW,197,0.0,0.0,64,0.00,,,0.00,VWS V12.07,2013-07-30 00:47:00,
2013-07-29 19:50:00,72.1,59.3,30.27,SSW,197,0.0,0.0,64,0.00,,,0.00,VWS V12.07,2013-07-30 00:50:00,
2013-07-29 19:55:00,71.9,59.1,30.27,SSW,197,0.0,0.0,64,0.00,,,0.00,VWS V12.07,2013-07-30 00:55:00,
2013-07-29 20:04:00,70.6,60.0,30.27,East,80,2.0,2.0,69,0.00,,,0.00,VWS V12.07,2013-07-30 01:04:00,
2013-07-29 20:05:00,70.4,59.8,30.27,East,80,2.0,3.0,69,0.00,,,0.00,VWS V12.07,2013-07-30 01:05:00,
2013-07-29 20:10:00,70.1,59.5,30.27,East,86,0.0,2.0,69,0.00,,,0.00,VWS V12.07,2013-07-30 01:10:00,
2013-07-29 20:17:00,70.0,60.2,30.27,East,92,1.0,2.0,71,0.00,,,0.00,VWS V12.07,2013-07-30 01:17:00,
2013-07-29 20:20:00,69.7,60.3,30.27,ENE,74,2.0,2.0,72,0.00,,,0.00,VWS V12.07,2013-07-30 01:20:00,
2013-07-29 20:25:00,69.5,60.1,30.27,ENE,77,1.0,2.0,72,0.00,,,0.00,VWS V12.07,2013-07-30 01:25:00,
2013-07-29 20:34:00,69.3,60.3,30.27,ENE,77,1.0,3.0,73,0.00,,,0.00,VWS V12.07,2013-07-30 01:34:00,
2013-07-29 20:35:00,69.2,60.2,30.27,East,87,2.0,3.0,73,0.00,,,0.00,VWS V12.07,2013-07-30 01:35:00,
2013-07-29 20:40:00,69.1,60.5,30.27,ENE,78,2.0,2.0,74,0.00,,,0.00,VWS V12.07,2013-07-30 01:40:00,
2013-07-29 20:47:00,68.6,60.4,30.27,ENE,76,1.0,3.0,75,0.00,,,0.00,VWS V12.07,2013-07-30 01:47:00,
2013-07-29 20:55:00,68.2,60.3,30.27,ENE,71,2.0,3.0,76,0.00,,,0.00,VWS V12.07,2013-07-30 01:55:00,
2013-07-29 21:04:00,67.7,60.6,30.28,East,85,1.0,2.0,78,0.00,,,0.00,VWS V12.07,2013-07-30 02:04:00,
2013-07-29 21:05:00,67.7,60.6,30.28,East,85,0.0,2.0,78,0.00,,,0.00,VWS V12.07,2013-07-30 02:05:00,
2013-07-29 21:10:00,67.4,60.3,30.28,ENE,72,3.0,3.0,78,0.00,,,0.00,VWS V12.07,2013-07-30 02:10:00,
2013-07-29 21:20:00,66.9,60.2,30.28,East,85,2.0,3.0,79,0.00,,,0.00,VWS V12.07,2013-07-30 02:20:00,
2013-07-29 21:25:00,66.8,60.4,30.28,East,79,1.0,3.0,80,0.00,,,0.00,VWS V12.07,2013-07-30 02:25:00,
2013-07-29 21:34:00,66.4,60.4,30.29,ESE,105,2.0,4.0,81,0.00,,,0.00,VWS V12.07,2013-07-30 02:34:00,
2013-07-29 21:40:00,66.0,60.0,30.29,East,83,2.0,3.0,81,0.00,,,0.00,VWS V12.07,2013-07-30 02:40:00,
2013-07-29 21:47:00,65.7,60.1,30.29,ENE,75,3.0,4.0,82,0.00,,,0.00,VWS V12.07,2013-07-30 02:47:00,
2013-07-29 21:50:00,65.7,60.1,30.29,East,80,2.0,3.0,82,0.00,,,0.00,VWS V12.07,2013-07-30 02:50:00,
2013-07-29 21:55:00,65.6,60.0,30.29,East,84,3.0,4.0,82,0.00,,,0.00,VWS V12.07,2013-07-30 02:55:00,
2013-07-29 22:04:00,65.2,59.9,30.29,ENE,71,2.0,4.0,83,0.00,,,0.00,VWS V12.07,2013-07-30 03:04:00,
2013-07-29 22:10:00,65.0,59.7,30.29,East,82,3.0,3.0,83,0.00,,,0.00,VWS V12.07,2013-07-30 03:10:00,
2013-07-29 22:17:00,64.8,59.5,30.29,East,80,2.0,3.0,83,0.00,,,0.00,VWS V12.07,2013-07-30 03:17:00,
2013-07-29 22:20:00,64.7,59.8,30.29,ENE,77,2.0,2.0,84,0.00,,,0.00,VWS V12.07,2013-07-30 03:20:00,
2013-07-29 22:25:00,64.6,59.7,30.29,East,79,2.0,3.0,84,0.00,,,0.00,VWS V12.07,2013-07-30 03:25:00,
2013-07-29 22:34:00,64.4,59.5,30.29,East,86,2.0,4.0,84,0.00,,,0.00,VWS V12.07,2013-07-30 03:34:00,
2013-07-29 22:35:00,64.4,59.5,30.29,ENE,75,2.0,4.0,84,0.00,,,0.00,VWS V12.07,2013-07-30 03:35:00,
2013-07-29 22:40:00,64.3,59.4,30.29,ENE,71,2.0,4.0,84,0.00,,,0.00,VWS V12.07,2013-07-30 03:40:00,
2013-07-29 22:47:00,64.1,59.5,30.29,East,79,2.0,4.0,85,0.00,,,0.00,VWS V12.07,2013-07-30 03:47:00,
2013-07-29 22:55:00,64.0,59.4,30.29,East,81,1.0,3.0,85,0.00,,,0.00,VWS V12.07,2013-07-30 03:55:00,
2013-07-29 23:04:00,63.7,59.4,30.29,ENE,67,4.0,4.0,86,0.00,,,0.00,VWS V12.07,2013-07-30 04:04:00,
2013-07-29 23:05:00,63.7,59.4,30.29,ENE,76,2.0,4.0,86,0.00,,,0.00,VWS V12.07,2013-07-30 04:05:00,
2013-07-29 23:10:00,63.6,59.3,30.29,ENE,77,2.0,3.0,86,0.00,,,0.00,VWS V12.07,2013-07-30 04:10:00,
2013-07-29 23:17:00,63.5,59.2,30.29,East,86,2.0,3.0,86,0.00,,,0.00,VWS V12.07,2013-07-30 04:17:00,
2013-07-29 23:20:00,63.5,59.2,30.29,East,82,2.0,2.0,86,0.00,,,0.00,VWS V12.07,2013-07-30 04:20:00,
2013-07-29 23:25:00,63.5,59.2,30.30,East,85,1.0,3.0,86,0.00,,,0.00,VWS V12.07,2013-07-30 04:25:00,
2013-07-29 23:34:00,63.6,59.3,30.30,East,82,2.0,3.0,86,0.00,,,0.00,VWS V12.07,2013-07-30 04:34:00,
2013-07-29 23:40:00,63.8,59.5,30.30,East,89,1.0,3.0,86,0.00,,,0.00,VWS V12.07,2013-07-30 04:40:00,
2013-07-29 23:47:00,63.9,59.6,30.30,ESE,103,2.0,3.0,86,0.00,,,0.00,VWS V12.07,2013-07-30 04:47:00,
2013-07-29 23:50:00,63.9,59.6,30.30,East,90,2.0,3.0,86,0.00,,,0.00,VWS V12.07,2013-07-30 04:50:00,
2013-07-29 23:55:00,63.8,59.5,30.30,East,92,3.0,3.0,86,0.00,,,0.00,VWS V12.07,2013-07-30 04:55:00,